Time;durP1;ratioP1;P1;durP2;ratioP2;P2;SDS_P1;SDS_P2;PMS_P1;PMS_P2;Temp;Humidity;BMP_temperature;BMP_pressure;BME280_temperature;BME280_humidity;BME280_pressure;Samples;Min_cycle;Max_cycle;Signal;HPM_P1;HPM_P2
2023/07/25 00:00:21;;;;;;;11.00;5.30;;;;;;;18.87;73.96;95357.09;5033614;28;20179;-68
2023/07/25 00:02:47;;;;;;;7.30;4.97;;;;;;;18.83;73.82;95349.41;5027599;28;20211;-65
2023/07/25 00:05:12;;;;;;;8.00;5.23;;;;;;;18.80;73.87;95352.34;5027412;28;20227;-69
2023/07/25 00:07:37;;;;;;;6.30;5.20;;;;;;;18.83;73.93;95352.06;5027262;28;20179;-71
2023/07/25 00:10:03;;;;;;;11.20;6.27;;;;;;;18.82;74.01;95353.03;5027275;28;20275;-65
2023/07/25 00:12:28;;;;;;;10.43;6.67;;;;;;;18.81;74.01;95343.38;5027518;28;20237;-68
2023/07/25 00:14:54;;;;;;;12.10;5.70;;;;;;;18.77;74.27;95344.66;5027195;28;20195;-69
2023/07/25 00:17:19;;;;;;;11.63;8.60;;;;;;;18.76;74.24;95336.81;5027250;28;20695;-66
2023/07/25 00:19:44;;;;;;;7.70;5.80;;;;;;;18.82;74.21;95342.38;5026986;28;20237;-71
2023/07/25 00:22:10;;;;;;;11.90;6.70;;;;;;;18.80;74.33;95339.06;5027172;28;20176;-66
2023/07/25 00:24:36;;;;;;;10.63;6.40;;;;;;;18.74;74.03;95338.75;5027167;28;20207;-66
2023/07/25 00:27:01;;;;;;;10.80;6.00;;;;;;;18.69;74.46;95331.22;5027331;28;20417;-66
2023/07/25 00:29:26;;;;;;;6.57;5.53;;;;;;;18.74;74.04;95314.84;5027067;28;20171;-70
2023/07/25 00:31:52;;;;;;;8.33;5.43;;;;;;;18.72;73.96;95320.28;5027310;28;20625;-65
2023/07/25 00:34:17;;;;;;;10.83;6.97;;;;;;;18.70;74.04;95297.50;5027007;28;20192;-66
2023/07/25 00:36:42;;;;;;;7.70;4.90;;;;;;;18.73;73.76;95305.19;5027170;28;20206;-69
2023/07/25 00:39:10;;;;;;;10.10;5.67;;;;;;;18.70;73.76;95303.66;5026935;28;20183;-66
2023/07/25 00:41:36;;;;;;;7.43;5.20;;;;;;;18.68;73.68;95297.63;5027298;28;20180;-65
2023/07/25 00:44:01;;;;;;;8.00;5.43;;;;;;;18.56;74.11;95299.63;5027068;28;20767;-63
2023/07/25 00:46:26;;;;;;;10.53;6.27;;;;;;;18.72;73.47;95295.53;5026888;28;20183;-66
2023/07/25 00:48:52;;;;;;;7.80;5.70;;;;;;;18.69;73.35;95291.34;5026506;28;20204;-66
2023/07/25 00:51:18;;;;;;;12.37;5.30;;;;;;;18.67;72.79;95289.81;5026709;28;20681;-66
2023/07/25 00:53:44;;;;;;;9.77;5.10;;;;;;;18.71;73.12;95293.84;5026712;28;20414;-68
2023/07/25 00:56:10;;;;;;;10.77;5.00;;;;;;;18.68;72.84;95294.97;5026730;28;20291;-71
2023/07/25 00:58:36;;;;;;;8.43;4.73;;;;;;;18.63;72.98;95290.09;5026737;28;20648;-65
2023/07/25 01:01:06;;;;;;;8.43;5.20;;;;;;;18.56;73.85;95291.66;5026645;28;20411;-69
2023/07/25 01:03:34;;;;;;;9.73;5.20;;;;;;;18.58;73.52;95294.19;5026673;28;20637;-69
2023/07/25 01:06:02;;;;;;;12.07;4.70;;;;;;;18.62;73.34;95282.28;5030167;28;20493;-68
2023/07/25 01:08:28;;;;;;;11.10;5.77;;;;;;;18.53;73.69;95286.63;5030574;28;20409;-67
2023/07/25 01:10:53;;;;;;;10.07;5.67;;;;;;;18.54;73.72;95292.78;5030032;28;20475;-71
2023/07/25 01:13:19;;;;;;;8.80;4.90;;;;;;;18.53;73.52;95288.47;5030398;28;20171;-65
2023/07/25 01:15:45;;;;;;;13.90;5.70;;;;;;;18.54;73.50;95288.31;5030342;28;20295;-66
2023/07/25 01:18:12;;;;;;;5.80;4.37;;;;;;;18.53;73.65;95285.81;5030498;28;20505;-65
2023/07/25 01:20:39;;;;;;;9.07;4.70;;;;;;;18.63;73.21;95294.56;5029749;28;20187;-69
2023/07/25 01:23:09;;;;;;;9.50;4.43;;;;;;;18.43;73.81;95287.66;5030111;28;20954;-65
2023/07/25 01:25:35;;;;;;;6.90;4.97;;;;;;;18.43;74.09;95292.97;5030123;28;20527;-66
2023/07/25 01:28:01;;;;;;;6.43;5.10;;;;;;;18.50;73.48;95280.78;5030037;28;20422;-65
2023/07/25 01:30:26;;;;;;;5.50;4.70;;;;;;;18.49;73.72;95269.28;5029713;28;20221;-67
2023/07/25 01:32:52;;;;;;;8.33;4.90;;;;;;;18.56;73.52;95265.09;5030008;28;20207;-65
2023/07/25 01:35:17;;;;;;;6.30;4.67;;;;;;;18.46;73.61;95268.75;5029814;28;20195;-67
2023/07/25 01:37:43;;;;;;;8.00;5.20;;;;;;;18.47;73.65;95275.75;5029707;28;20766;-65
2023/07/25 01:40:09;;;;;;;6.40;4.70;;;;;;;18.46;73.28;95271.41;5029800;28;20286;-71
2023/07/25 01:42:34;;;;;;;5.97;5.37;;;;;;;18.38;73.63;95264.19;5030138;28;20257;-71
2023/07/25 01:44:59;;;;;;;10.90;5.80;;;;;;;18.47;73.32;95270.44;5030280;28;20636;-66
2023/07/25 01:47:25;;;;;;;7.30;5.30;;;;;;;18.55;73.03;95270.56;5029904;28;20179;-65
2023/07/25 01:49:52;;;;;;;11.83;5.40;;;;;;;18.43;73.63;95271.72;5029422;28;20189;-65
2023/07/25 01:52:18;;;;;;;13.03;5.70;;;;;;;18.29;74.36;95267.69;5030273;28;20860;-66
2023/07/25 01:54:43;;;;;;;10.00;6.00;;;;;;;18.18;74.87;95264.19;5030144;28;20434;-70
2023/07/25 01:57:09;;;;;;;7.87;5.10;;;;;;;18.14;74.95;95256.63;5029471;28;20175;-65
2023/07/25 01:59:34;;;;;;;15.00;6.50;;;;;;;17.99;75.67;95264.22;5036171;28;20245;-64
2023/07/25 02:01:59;;;;;;;8.60;5.40;;;;;;;17.94;76.03;95254.00;5049440;28;20178;-67
2023/07/25 02:04:25;;;;;;;8.20;5.60;;;;;;;18.00;75.89;95244.66;5049036;28;20604;-69
2023/07/25 02:06:50;;;;;;;9.57;7.23;;;;;;;18.10;75.58;95255.28;5049241;28;20179;-68
2023/07/25 02:09:16;;;;;;;9.70;5.67;;;;;;;18.04;76.13;95246.03;5049158;28;20578;-65
2023/07/25 02:11:41;;;;;;;9.23;7.10;;;;;;;18.08;76.23;95231.50;5050388;28;20171;-69
2023/07/25 02:14:06;;;;;;;8.63;6.60;;;;;;;17.95;76.87;95223.00;5049225;28;20190;-65
2023/07/25 02:16:36;;;;;;;11.63;6.50;;;;;;;18.03;76.83;95217.81;5049324;28;20228;-66
2023/07/25 02:19:02;;;;;;;14.00;6.77;;;;;;;18.26;75.94;95199.75;5048785;28;20242;-67
2023/07/25 02:21:28;;;;;;;12.80;6.50;;;;;;;18.24;76.08;95199.06;5049216;28;20410;-69
2023/07/25 02:23:53;;;;;;;10.03;7.07;;;;;;;18.37;75.34;95204.03;5048801;28;20530;-66
2023/07/25 02:26:19;;;;;;;14.00;8.30;;;;;;;18.36;75.54;95186.44;5049045;28;20256;-68
2023/07/25 02:28:44;;;;;;;12.33;7.23;;;;;;;18.34;75.83;95169.81;5048732;28;20174;-68
2023/07/25 02:31:09;;;;;;;10.60;7.10;;;;;;;18.29;75.96;95161.44;5049114;28;20179;-68
2023/07/25 02:33:35;;;;;;;10.03;7.43;;;;;;;18.25;76.23;95158.25;5048931;28;20182;-65
2023/07/25 02:36:00;;;;;;;10.47;7.30;;;;;;;18.26;76.13;95170.56;5048824;28;20601;-68
2023/07/25 02:38:26;;;;;;;8.10;6.57;;;;;;;18.34;75.61;95175.97;5048996;28;20624;-69
2023/07/25 02:40:51;;;;;;;12.53;6.40;;;;;;;18.22;75.98;95174.47;5048446;28;20175;-63
2023/07/25 02:43:16;;;;;;;11.60;7.30;;;;;;;18.03;77.32;95178.00;5048689;28;20620;-66
2023/07/25 02:45:42;;;;;;;14.97;8.47;;;;;;;17.94;77.75;95161.13;5048504;28;20206;-67
2023/07/25 02:48:07;;;;;;;15.70;8.37;;;;;;;17.86;78.07;95155.69;5048716;28;20207;-67
2023/07/25 02:50:34;;;;;;;11.20;8.17;;;;;;;18.02;77.37;95152.41;5055901;28;20233;-68
2023/07/25 02:52:59;;;;;;;8.87;7.93;;;;;;;18.05;77.25;95154.81;5059524;28;20413;-67
2023/07/25 02:55:25;;;;;;;12.43;8.80;;;;;;;18.13;77.08;95151.44;5049659;28;20203;-71
2023/07/25 02:57:51;;;;;;;12.57;9.37;;;;;;;17.90;78.21;95146.44;5048962;28;20186;-64
2023/07/25 03:00:16;;;;;;;13.40;10.20;;;;;;;17.85;78.67;95155.81;5035575;28;20414;-68
2023/07/25 03:02:42;;;;;;;18.90;11.53;;;;;;;17.71;78.99;95147.28;5028986;28;20229;-64
2023/07/25 03:05:08;;;;;;;16.87;10.57;;;;;;;17.87;78.43;95138.78;5028661;28;20203;-69
2023/07/25 03:07:33;;;;;;;12.13;10.30;;;;;;;18.04;77.95;95136.38;5028343;28;20177;-68
2023/07/25 03:09:59;;;;;;;15.33;10.50;;;;;;;18.09;77.88;95136.75;5027803;28;20421;-68
2023/07/25 03:12:24;;;;;;;22.40;11.93;;;;;;;18.06;77.55;95147.69;5028097;28;20691;-65
2023/07/25 03:14:50;;;;;;;19.23;11.10;;;;;;;18.05;77.87;95156.59;5027877;28;20223;-67
2023/07/25 03:17:15;;;;;;;20.73;11.77;;;;;;;17.80;79.18;95155.38;5028179;28;20532;-69
2023/07/25 03:19:40;;;;;;;20.53;10.70;;;;;;;17.96;78.19;95137.91;5027944;28;20229;-64
2023/07/25 03:22:06;;;;;;;21.33;9.90;;;;;;;18.10;77.21;95147.25;5030035;28;20652;-65
2023/07/25 03:24:31;;;;;;;13.30;10.03;;;;;;;18.17;76.77;95144.84;5028654;28;20214;-66
2023/07/25 03:26:57;;;;;;;22.70;9.90;;;;;;;18.25;76.28;95137.00;5028012;28;20187;-65
2023/07/25 03:29:22;;;;;;;13.07;8.60;;;;;;;18.29;75.78;95137.56;5027689;28;20839;-65
2023/07/25 03:31:48;;;;;;;17.47;10.20;;;;;;;18.30;75.79;95136.56;5027805;28;20229;-67
2023/07/25 03:34:13;;;;;;;17.10;10.73;;;;;;;18.27;76.00;95136.84;5027901;28;20262;-66
2023/07/25 03:36:38;;;;;;;17.53;10.87;;;;;;;18.26;76.36;95140.47;5027998;28;20620;-68
2023/07/25 03:39:04;;;;;;;18.13;10.77;;;;;;;18.22;76.43;95142.59;5027368;28;20183;-66
2023/07/25 03:41:29;;;;;;;19.53;10.43;;;;;;;18.28;76.29;95135.84;5027770;28;20187;-65
2023/07/25 03:43:54;;;;;;;24.20;12.90;;;;;;;18.26;76.34;95144.00;5027565;28;20211;-68
2023/07/25 03:46:20;;;;;;;22.30;10.10;;;;;;;18.23;76.57;95146.09;5027767;28;20180;-69
2023/07/25 03:48:45;;;;;;;55.73;14.77;;;;;;;18.17;76.75;95147.50;5027578;28;20313;-66
2023/07/25 03:51:10;;;;;;;17.10;10.00;;;;;;;18.14;76.98;95161.91;5027476;28;20194;-66
2023/07/25 03:53:36;;;;;;;17.23;10.40;;;;;;;18.21;76.52;95154.19;5027361;28;20171;-66
2023/07/25 03:56:01;;;;;;;18.70;10.80;;;;;;;18.12;76.87;95152.44;5027504;28;20175;-64
2023/07/25 03:58:26;;;;;;;24.83;11.27;;;;;;;18.13;76.80;95144.28;5027423;28;20180;-66
2023/07/25 04:00:52;;;;;;;17.20;10.47;;;;;;;18.16;76.49;95144.00;5044832;28;20717;-68
2023/07/25 04:03:17;;;;;;;14.87;9.90;;;;;;;18.14;76.77;95153.97;5047193;28;20174;-65
2023/07/25 04:05:43;;;;;;;24.20;10.90;;;;;;;18.20;76.47;95171.94;5047483;28;20299;-65
2023/07/25 04:08:08;;;;;;;22.30;12.57;;;;;;;18.18;76.59;95170.41;5047864;28;20529;-65
2023/07/25 04:10:34;;;;;;;16.60;11.83;;;;;;;18.16;76.77;95170.56;5046791;28;20819;-67
2023/07/25 04:12:59;;;;;;;29.37;13.03;;;;;;;18.02;77.47;95178.13;5047306;28;20179;-66
2023/07/25 04:15:25;;;;;;;19.93;11.30;;;;;;;17.74;78.26;95184.16;5047161;28;20847;-69
2023/07/25 04:17:50;;;;;;;22.13;11.17;;;;;;;17.78;78.43;95185.53;5047278;28;20171;-68
2023/07/25 04:20:15;;;;;;;25.53;10.70;;;;;;;17.83;78.36;95184.31;5047106;28;20179;-66
2023/07/25 04:22:41;;;;;;;21.77;10.70;;;;;;;17.78;78.36;95182.06;5038127;28;20223;-69
2023/07/25 04:25:06;;;;;;;20.03;9.50;;;;;;;17.80;78.19;95187.22;5025023;28;20245;-74
2023/07/25 04:27:32;;;;;;;27.57;10.70;;;;;;;17.67;78.63;95187.50;5025621;28;20234;-66
2023/07/25 04:29:57;;;;;;;16.20;10.90;;;;;;;17.65;79.04;95182.34;5025825;28;20257;-69
2023/07/25 04:32:23;;;;;;;18.07;11.70;;;;;;;17.58;79.19;95178.59;5026650;28;20186;-64
2023/07/25 04:34:48;;;;;;;23.97;13.17;;;;;;;17.47;79.93;95174.25;5025718;28;20203;-65
2023/07/25 04:37:13;;;;;;;24.10;12.17;;;;;;;17.51;80.06;95164.22;5016082;28;20660;-67
2023/07/25 04:39:39;;;;;;;18.30;12.10;;;;;;;17.70;79.09;95163.38;5026186;28;20601;-66
2023/07/25 04:42:05;;;;;;;19.67;12.43;;;;;;;17.74;79.10;95160.28;5029374;28;20527;-68
2023/07/25 04:44:30;;;;;;;23.80;12.63;;;;;;;17.52;80.23;95161.41;5026754;28;20282;-66
2023/07/25 04:46:56;;;;;;;38.07;14.23;;;;;;;17.59;80.21;95161.69;5030279;28;20428;-66
2023/07/25 04:49:21;;;;;;;35.10;15.57;;;;;;;17.85;78.81;95156.66;5030153;28;20180;-65
2023/07/25 04:51:46;;;;;;;27.87;15.83;;;;;;;17.72;79.25;95158.75;5030450;28;20187;-67
2023/07/25 04:54:12;;;;;;;21.30;14.50;;;;;;;18.44;76.42;95145.88;5029973;28;20280;-66
2023/07/25 04:56:40;;;;;;;24.47;13.50;;;;;;;18.76;74.69;95148.97;5030072;28;20629;-71
2023/07/25 04:59:05;;;;;;;23.43;9.00;;;;;;;19.50;72.02;95155.03;5033184;28;20197;-71
2023/07/25 05:01:30;;;;;;;25.47;10.97;;;;;;;19.38;72.63;95149.13;5028496;28;20815;-71
2023/07/25 05:03:56;;;;;;;20.90;10.70;;;;;;;19.53;71.68;95141.41;5026225;28;20329;-70
2023/07/25 05:06:21;;;;;;;19.60;10.23;;;;;;;19.65;71.48;95150.00;5027446;28;20262;-71
2023/07/25 05:08:47;;;;;;;37.07;19.60;;;;;;;19.64;70.87;95143.84;5027967;28;20653;-71
2023/07/25 05:11:12;;;;;;;41.37;18.17;;;;;;;19.50;71.40;95135.59;5017164;28;20283;-72
2023/07/25 05:13:37;;;;;;;33.97;16.67;;;;;;;19.19;72.43;95134.13;5028791;28;20175;-72
2023/07/25 05:16:03;;;;;;;26.73;17.70;;;;;;;18.87;73.68;95126.66;5029145;28;20214;-70
2023/07/25 05:18:28;;;;;;;35.00;19.67;;;;;;;18.99;73.14;95114.84;5031774;28;20207;-67
2023/07/25 05:20:54;;;;;;;30.27;18.60;;;;;;;18.66;74.66;95124.25;5027589;28;20400;-65
2023/07/25 05:23:19;;;;;;;44.87;20.80;;;;;;;18.49;75.43;95125.00;5026466;28;20201;-64
2023/07/25 05:25:47;;;;;;;33.07;20.13;;;;;;;18.43;75.53;95134.41;5027102;28;20799;-68
2023/07/25 05:28:13;;;;;;;41.97;21.37;;;;;;;18.42;76.19;95135.38;5027302;28;20175;-66
2023/07/25 05:30:39;;;;;;;46.53;24.33;;;;;;;18.32;76.06;95131.94;5022644;28;20797;-65
2023/07/25 05:33:05;;;;;;;33.47;21.60;;;;;;;18.01;77.58;95131.34;5021653;28;20267;-66
2023/07/25 05:35:31;;;;;;;39.07;21.57;;;;;;;17.92;78.15;95133.88;5027721;28;20191;-65
2023/07/25 05:37:56;;;;;;;36.40;20.57;;;;;;;18.20;77.06;95144.56;5027897;28;20961;-67
2023/07/25 05:40:22;;;;;;;34.53;21.50;;;;;;;18.35;76.42;95137.81;5025436;28;20277;-64
2023/07/25 05:42:47;;;;;;;38.67;20.37;;;;;;;18.45;75.95;95139.56;5026953;28;20190;-67
2023/07/25 05:45:13;;;;;;;34.73;19.80;;;;;;;18.48;75.92;95133.97;5026037;28;20207;-67
2023/07/25 05:47:38;;;;;;;39.73;19.90;;;;;;;18.50;75.94;95139.97;5025646;28;20282;-66
2023/07/25 05:50:05;;;;;;;29.43;19.20;;;;;;;18.44;75.96;95136.06;5016933;28;20175;-66
2023/07/25 05:52:31;;;;;;;46.00;22.63;;;;;;;18.45;75.59;95129.81;5027737;28;20584;-63
2023/07/25 05:54:56;;;;;;;34.43;20.10;;;;;;;18.55;75.58;95117.28;5026766;28;20554;-64
2023/07/25 05:57:21;;;;;;;45.53;20.30;;;;;;;18.38;75.89;95116.25;5019370;28;20509;-66
2023/07/25 05:59:47;;;;;;;52.37;23.23;;;;;;;18.44;75.97;95116.66;5026235;28;20206;-66
2023/07/25 06:02:12;;;;;;;39.83;21.50;;;;;;;18.41;76.20;95115.13;5018162;28;20245;-66
2023/07/25 06:04:38;;;;;;;36.37;20.00;;;;;;;18.48;75.83;95115.38;5027380;28;20444;-63
2023/07/25 06:07:04;;;;;;;44.83;19.77;;;;;;;18.39;76.13;95115.25;5027404;28;20229;-67
2023/07/25 06:09:29;;;;;;;51.47;22.33;;;;;;;18.33;76.28;95122.97;5019172;28;20982;-68
2023/07/25 06:11:55;;;;;;;35.80;19.23;;;;;;;18.33;76.36;95125.63;5008767;28;20171;-67
2023/07/25 06:14:21;;;;;;;49.00;19.30;;;;;;;18.35;76.23;95147.56;5026790;28;20278;-67
2023/07/25 06:16:46;;;;;;;37.80;18.10;;;;;;;18.37;76.01;95154.41;5025378;28;20178;-67
2023/07/25 06:19:12;;;;;;;28.53;16.20;;;;;;;18.35;75.89;95163.50;5018781;28;20175;-66
2023/07/25 06:21:38;;;;;;;34.73;16.90;;;;;;;18.39;76.03;95167.56;5027052;28;20375;-66
2023/07/25 06:24:03;;;;;;;30.03;15.77;;;;;;;18.37;76.12;95167.69;5020717;28;20491;-67
2023/07/25 06:26:29;;;;;;;22.30;11.47;;;;;;;18.34;75.59;95168.00;5026985;28;20679;-68
2023/07/25 06:28:54;;;;;;;15.60;9.73;;;;;;;18.38;74.93;95164.06;5022429;28;20269;-66
2023/07/25 06:31:20;;;;;;;11.03;8.20;;;;;;;18.41;74.54;95161.13;5026705;28;20187;-68
2023/07/25 06:33:45;;;;;;;21.33;10.17;;;;;;;18.80;73.26;95162.78;5031208;28;20529;-66
2023/07/25 06:36:11;;;;;;;13.50;8.50;;;;;;;18.50;74.17;95161.25;5020820;28;20183;-67
2023/07/25 06:38:36;;;;;;;20.73;10.70;;;;;;;18.46;74.68;95158.03;5002895;28;20171;-67
2023/07/25 06:41:01;;;;;;;22.47;13.10;;;;;;;18.73;74.49;95157.22;5027327;28;20265;-66
2023/07/25 06:43:27;;;;;;;14.63;12.40;;;;;;;18.52;75.53;95149.47;5029261;28;20189;-71
2023/07/25 06:45:53;;;;;;;14.30;11.60;;;;;;;18.44;76.47;95145.88;5029383;28;20191;-70
2023/07/25 06:48:19;;;;;;;26.10;12.37;;;;;;;19.28;74.56;95123.59;5027450;28;20172;-68
2023/07/25 06:50:45;;;;;;;12.40;6.57;;;;;;;19.56;66.32;95126.97;5028350;28;21289;-69
2023/07/25 06:53:11;;;;;;;11.40;6.60;;;;;;;19.85;66.23;95127.59;5027675;28;20180;-69
2023/07/25 06:55:40;;;;;;;8.80;4.40;;;;;;;19.77;64.66;95100.91;5023893;28;20271;-69
2023/07/25 06:58:05;;;;;;;12.57;5.70;;;;;;;19.19;64.47;95096.06;5008641;28;20178;-68
2023/07/25 07:00:31;;;;;;;12.20;4.70;;;;;;;19.91;62.66;95102.16;5038476;28;20512;-67
2023/07/25 07:02:56;;;;;;;9.47;4.20;;;;;;;19.87;61.30;95087.50;5008302;28;20561;-66
2023/07/25 07:05:22;;;;;;;7.73;4.90;;;;;;;19.77;61.31;95092.06;5008598;28;20685;-67
2023/07/25 07:07:49;;;;;;;10.13;4.13;;;;;;;20.05;62.82;95088.25;5014714;28;20172;-70
2023/07/25 07:10:14;;;;;;;8.90;4.47;;;;;;;20.09;59.94;95084.28;5023886;28;20226;-67
2023/07/25 07:12:45;;;;;;;8.20;5.60;;;;;;;20.11;59.25;95088.63;5028454;28;20446;-68
2023/07/25 07:15:14;;;;;;;6.80;4.00;;;;;;;20.07;59.71;95099.59;5028562;28;20202;-66
2023/07/25 07:17:41;;;;;;;15.50;4.37;;;;;;;20.08;59.40;95101.28;5028356;28;20413;-67
2023/07/25 07:20:07;;;;;;;6.53;3.60;;;;;;;19.98;60.18;95105.84;5026132;28;20422;-67
2023/07/25 07:22:32;;;;;;;13.47;4.27;;;;;;;19.91;61.79;95093.34;5026642;28;20453;-66
2023/07/25 07:24:58;;;;;;;5.57;3.83;;;;;;;19.88;63.09;95097.16;5028292;28;20203;-71
2023/07/25 07:27:23;;;;;;;7.73;4.90;;;;;;;19.81;64.20;95104.91;5027816;28;20172;-70
2023/07/25 07:29:51;;;;;;;8.10;4.83;;;;;;;19.44;67.56;95113.06;5027491;28;20237;-68
2023/07/25 07:32:17;;;;;;;10.20;7.00;;;;;;;19.16;70.18;95121.16;5026809;28;20202;-69
2023/07/25 07:34:42;;;;;;;9.17;6.87;;;;;;;19.17;71.34;95116.66;5027866;28;20427;-68
2023/07/25 07:37:08;;;;;;;17.10;6.90;;;;;;;19.19;71.94;95112.88;5024636;28;20186;-69
2023/07/25 07:39:33;;;;;;;21.90;7.90;;;;;;;19.14;72.34;95106.34;5028972;28;20620;-70
2023/07/25 07:41:58;;;;;;;21.47;8.47;;;;;;;19.07;72.00;95108.75;5034044;28;20194;-69
2023/07/25 07:44:24;;;;;;;20.27;7.53;;;;;;;19.24;72.09;95107.91;5028766;28;20428;-69
2023/07/25 07:46:49;;;;;;;16.20;7.63;;;;;;;19.19;72.47;95126.16;5022779;28;20195;-70
2023/07/25 07:49:14;;;;;;;19.57;6.60;;;;;;;19.15;72.38;95124.78;5023768;28;20260;-68
2023/07/25 07:51:40;;;;;;;9.53;6.03;;;;;;;19.00;70.53;95121.81;5028163;28;20175;-68
2023/07/25 07:54:05;;;;;;;11.50;4.90;;;;;;;19.10;70.94;95116.44;5028769;28;20196;-66
2023/07/25 07:56:31;;;;;;;21.43;6.17;;;;;;;19.23;70.24;95119.56;5026113;28;20168;-68
2023/07/25 07:58:56;;;;;;;9.87;5.00;;;;;;;19.39;70.39;95118.03;5029030;28;20742;-66
2023/07/25 08:01:21;;;;;;;18.47;5.23;;;;;;;19.32;69.66;95119.63;5025932;28;20246;-69
2023/07/25 08:03:47;;;;;;;9.47;6.00;;;;;;;19.35;70.29;95119.34;5028925;28;20195;-67
2023/07/25 08:06:13;;;;;;;16.97;5.40;;;;;;;19.32;70.04;95128.44;5030469;28;20198;-68
2023/07/25 08:08:40;;;;;;;9.17;3.77;;;;;;;19.29;70.96;95119.94;5030182;28;20178;-68
2023/07/25 08:11:05;;;;;;;5.10;3.37;;;;;;;19.55;70.26;95112.84;5031363;28;20195;-70
2023/07/25 08:13:31;;;;;;;4.63;3.63;;;;;;;19.71;69.63;95129.97;5019655;28;20575;-66
2023/07/25 08:15:56;;;;;;;8.57;3.73;;;;;;;19.69;69.40;95130.13;5032988;28;20188;-66
2023/07/25 08:18:21;;;;;;;8.60;4.60;;;;;;;19.51;69.22;95123.94;5032032;28;20164;-69
2023/07/25 08:20:47;;;;;;;5.97;4.57;;;;;;;19.56;69.72;95127.84;5033019;28;20262;-67
2023/07/25 08:23:13;;;;;;;42.73;8.43;;;;;;;19.39;70.41;95123.34;5021714;28;20253;-70
2023/07/25 08:25:39;;;;;;;12.03;5.33;;;;;;;19.42;69.76;95131.03;5027789;28;20204;-66
2023/07/25 08:28:05;;;;;;;9.03;4.13;;;;;;;19.40;69.83;95127.69;5027884;28;20183;-68
2023/07/25 08:30:30;;;;;;;5.90;3.67;;;;;;;19.30;69.40;95121.59;5027038;28;20266;-72
2023/07/25 08:32:56;;;;;;;6.60;4.13;;;;;;;19.25;70.37;95127.38;5027167;28;20495;-67
2023/07/25 08:35:21;;;;;;;9.77;4.10;;;;;;;19.24;70.56;95125.72;5027338;28;20188;-66
2023/07/25 08:37:46;;;;;;;5.20;3.60;;;;;;;19.22;70.17;95115.22;5027259;28;20385;-67
2023/07/25 08:40:12;;;;;;;6.73;3.90;;;;;;;19.14;70.95;95115.16;5027231;28;20199;-70
2023/07/25 08:42:42;;;;;;;15.93;4.50;;;;;;;19.13;71.29;95112.63;5027198;28;20254;-66
2023/07/25 08:45:09;;;;;;;7.37;4.63;;;;;;;19.13;71.44;95120.59;5027437;28;20595;-67
2023/07/25 08:47:39;;;;;;;14.13;4.80;;;;;;;18.99;72.39;95121.97;5027568;28;20414;-70
2023/07/25 08:50:18;;;;;;;16.90;4.80;;;;;;;19.10;72.01;95120.91;5007388;28;20821;-70
2023/07/25 08:52:52;;;;;;;15.80;4.57;;;;;;;19.09;71.49;95120.09;5012918;28;20446;-69
2023/07/25 08:55:18;;;;;;;6.97;3.80;;;;;;;19.17;71.88;95127.31;5004709;28;20429;-68
2023/07/25 08:57:44;;;;;;;12.93;5.33;;;;;;;19.10;72.23;95128.91;5026209;28;20460;-67
2023/07/25 09:00:13;;;;;;;10.73;5.03;;;;;;;19.00;72.89;95147.56;5027378;28;20426;-67
2023/07/25 09:02:38;;;;;;;7.27;4.40;;;;;;;18.95;72.88;95153.34;5018545;28;20442;-68
2023/07/25 09:05:05;;;;;;;11.83;4.90;;;;;;;18.81;73.67;95162.66;5027380;28;20951;-69
2023/07/25 09:07:30;;;;;;;10.50;4.53;;;;;;;18.73;73.84;95165.19;5026128;28;20187;-69
2023/07/25 09:09:56;;;;;;;9.50;4.50;;;;;;;18.72;73.72;95176.78;5026657;28;20413;-67
2023/07/25 09:12:21;;;;;;;13.97;4.77;;;;;;;18.61;73.96;95171.66;5018094;28;20262;-66
2023/07/25 09:14:47;;;;;;;8.10;3.57;;;;;;;18.50;74.03;95177.19;5027345;28;20292;-67
2023/07/25 09:17:12;;;;;;;9.40;4.20;;;;;;;18.37;74.65;95173.00;5016676;28;20217;-67
2023/07/25 09:19:38;;;;;;;7.70;3.37;;;;;;;18.33;74.76;95161.03;5027270;28;20171;-69
2023/07/25 09:22:04;;;;;;;6.40;3.23;;;;;;;18.23;74.66;95149.56;5026282;28;20187;-70
2023/07/25 09:24:37;;;;;;;6.53;3.10;;;;;;;18.31;74.49;95152.34;5027442;28;20266;-69
2023/07/25 09:27:03;;;;;;;5.53;2.90;;;;;;;18.28;75.32;95151.78;5023640;28;20203;-69
2023/07/25 09:29:28;;;;;;;7.20;4.33;;;;;;;18.28;75.25;95142.00;5010656;28;20407;-70
2023/07/25 09:31:54;;;;;;;14.00;4.10;;;;;;;18.35;74.72;95139.59;5012761;28;21416;-67
2023/07/25 09:34:23;;;;;;;16.57;3.60;;;;;;;18.48;74.65;95141.94;5029266;28;20773;-70
2023/07/25 09:36:48;;;;;;;15.90;3.90;;;;;;;18.51;73.77;95152.28;5027299;28;20492;-70
2023/07/25 09:39:15;;;;;;;4.33;2.97;;;;;;;18.47;73.40;95141.09;5030577;28;20414;-68
2023/07/25 09:41:42;;;;;;;4.57;3.33;;;;;;;18.43;72.99;95137.06;5030577;28;20285;-65
2023/07/25 09:44:08;;;;;;;11.93;2.80;;;;;;;18.23;72.53;95146.91;5030557;28;20883;-67
2023/07/25 09:46:34;;;;;;;6.40;2.70;;;;;;;18.19;72.90;95150.88;5030625;28;20410;-67
2023/07/25 09:48:59;;;;;;;2.80;2.10;;;;;;;18.24;72.97;95135.34;5030159;28;20491;-68
2023/07/25 09:51:25;;;;;;;4.83;2.23;;;;;;;18.15;72.80;95130.88;5029166;28;20182;-70
2023/07/25 09:53:52;;;;;;;8.57;2.13;;;;;;;18.08;73.52;95133.28;5042041;28;20745;-69
2023/07/25 09:56:20;;;;;;;5.53;2.73;;;;;;;18.15;73.99;95142.34;5031433;28;20772;-66
2023/07/25 09:58:48;;;;;;;11.73;3.03;;;;;;;18.25;74.12;95138.81;5030534;28;20493;-67
2023/07/25 10:01:14;;;;;;;8.23;2.47;;;;;;;18.42;73.05;95130.06;5049970;28;20925;-71
2023/07/25 10:03:43;;;;;;;6.10;2.40;;;;;;;18.46;72.91;95138.59;5050095;28;20973;-68
2023/07/25 10:06:10;;;;;;;9.30;2.27;;;;;;;18.43;72.96;95138.91;5049989;28;20409;-67
2023/07/25 10:08:38;;;;;;;6.90;2.30;;;;;;;18.61;73.00;95145.94;5049799;28;20460;-70
2023/07/25 10:11:04;;;;;;;14.17;3.40;;;;;;;19.02;71.95;95135.81;5049450;28;20640;-66
2023/07/25 10:13:32;;;;;;;6.33;2.40;;;;;;;19.67;70.23;95129.41;5049864;28;20478;-68
2023/07/25 10:16:00;;;;;;;6.03;1.93;;;;;;;19.90;70.92;95135.09;5049904;28;20414;-66
2023/07/25 10:18:27;;;;;;;7.53;2.23;;;;;;;20.20;69.19;95141.81;5049264;28;20797;-68
2023/07/25 10:20:54;;;;;;;4.00;2.93;;;;;;;20.39;67.81;95140.75;5049203;28;20424;-69
2023/07/25 10:23:29;;;;;;;6.50;2.80;;;;;;;20.27;67.23;95136.69;5049180;28;20516;-68
2023/07/25 10:25:55;;;;;;;6.20;2.60;;;;;;;20.25;67.19;95128.00;5049412;28;20482;-70
2023/07/25 10:28:23;;;;;;;4.83;2.87;;;;;;;20.16;67.56;95123.63;5049370;28;20425;-70
2023/07/25 10:30:49;;;;;;;5.90;2.63;;;;;;;19.72;67.56;95123.66;5033439;28;20172;-70
2023/07/25 10:33:16;;;;;;;5.77;2.53;;;;;;;19.56;69.92;95130.50;5029200;28;20472;-69
2023/07/25 10:35:44;;;;;;;13.27;4.10;;;;;;;20.03;67.16;95140.88;5028957;28;20437;-67
2023/07/25 10:38:12;;;;;;;4.93;2.57;;;;;;;19.63;66.80;95139.53;5028245;28;20415;-69
2023/07/25 10:40:57;;;;;;;19.03;3.53;;;;;;;19.76;67.98;95143.66;5027981;28;20498;-67
2023/07/25 10:43:27;;;;;;;4.70;2.30;;;;;;;19.66;67.73;95147.19;5023958;28;20427;-69
2023/07/25 10:45:54;;;;;;;14.60;2.57;;;;;;;19.96;66.85;95134.50;5028552;28;20441;-68
2023/07/25 10:48:44;;;;;;;4.13;2.90;;;;;;;20.05;67.02;95133.53;5028813;28;20445;-70
2023/07/25 10:51:10;;;;;;;6.70;2.37;;;;;;;20.09;66.80;95137.56;5010752;28;20488;-70
2023/07/25 10:53:36;;;;;;;5.97;2.53;;;;;;;20.04;66.82;95120.38;5027230;28;20407;-67
2023/07/25 10:56:04;;;;;;;12.20;3.30;;;;;;;20.01;65.25;95118.06;5029553;28;20925;-69
2023/07/25 10:58:31;;;;;;;4.40;2.50;;;;;;;19.89;65.00;95114.81;5023943;28;20236;-69
2023/07/25 11:00:57;;;;;;;4.17;2.90;;;;;;;19.42;68.79;95118.56;5028743;28;20520;-67
2023/07/25 11:03:26;;;;;;;9.30;2.40;;;;;;;19.10;69.68;95116.44;5028739;28;20510;-69
2023/07/25 11:05:53;;;;;;;8.93;2.43;;;;;;;19.25;69.05;95120.25;5028616;28;20183;-70
2023/07/25 11:08:19;;;;;;;4.70;2.40;;;;;;;19.34;69.51;95118.47;5028629;28;21074;-67
2023/07/25 11:10:44;;;;;;;9.07;2.53;;;;;;;19.73;69.07;95117.34;5026725;28;20488;-69
2023/07/25 11:13:11;;;;;;;8.37;2.60;;;;;;;19.74;67.51;95100.38;5021222;28;20180;-73
2023/07/25 11:15:37;;;;;;;9.50;2.83;;;;;;;19.79;66.87;95096.25;5026190;28;20187;-67
2023/07/25 11:18:06;;;;;;;3.00;2.20;;;;;;;19.93;67.30;95096.69;5028264;28;20410;-71
2023/07/25 11:20:32;;;;;;;8.40;2.97;;;;;;;20.02;66.57;95098.41;5028189;28;20168;-67